KMCB/MCB METAR and TAF weather

Enter ICAO airport designator
Station Type Date Time Source
KMCB METAR 2022/12/08 13:53 UTC NOAA

KMCB 081353Z AUTO 27006KT 1/4SM FG VV002 18/18 A3026 RMK AO2 SLP243 T01780178


Station Type Date Time Source
KMCB Decoded METAR 2022/12/08 13:53 UTC NOAA

MCCOMB/PIKE COUNTY AIRPORT, MS, United States (KMCB) 31-11N 90-28W 124M
Dec 08, 2022 - 08:53 AM EST / 2022.12.08 1353 UTC
Wind: from the W (270 degrees) at 7 MPH (6 KT):0
Visibility: 1/4 mile(s):0
Sky conditions: obscured
Weather: fog
Temperature: 64.0 F (17.8 C)
Dew Point: 64.0 F (17.8 C)
Relative Humidity: 100%
Pressure (altimeter): 30.26 in. Hg (1024 hPa)
ob: KMCB 081353Z AUTO 27006KT 1/4SM FG VV002 18/18 A3026 RMK AO2 SLP243 T01780178
cycle: 14

Station Type Date Time Source
KMCB TAF 2022/12/08 12:24 UTC NOAA

TAF KMCB 081121Z 0812/0912 00000KT 1/4SM FG BKN002
FM081400 VRB03KT 1SM BR SCT003
FM081500 VRB04KT P6SM BKN003
FM081700 23005KT P6SM SCT015
FM090900 00000KT 1SM BR BKN003

Example: see airport list